BRIO2: Bridgeport 4E

                                SHEF ID:       BRIO2     Canadian River at Bridgeport, OK
STATION TYPE:
Regulating: Stage = 15.00, Flow = 8372

STAGE RIV-FLOW BAT-LOAD
ft cfs volt
Ccp-Rev Ccp-Rev Ccp-Rev
(America/Chicago)
10/23 00:00 9.82 150 12.73
10/23 01:00 9.85 154 12.71
10/23 02:00 9.82 150 12.71
10/23 03:00 9.79 146 12.70
10/23 04:00 9.84 152 12.68
10/23 05:00 9.86 155 12.67
10/23 06:00 9.85 154 12.65
10/23 07:00 9.82 150 12.63
10/23 08:00 9.80 147 12.61
10/23 09:00 9.80 147 13.20
10/23 10:00 9.79 146 13.32
10/23 11:00 9.80 147 13.82
10/23 12:00 9.86 155 13.82
10/23 13:00 9.79 146 13.57
10/23 14:00 9.83 151 13.57
10/23 15:00 9.81 148 13.57
10/23 16:00 9.78 144 13.55
10/23 17:00 9.82 150 13.55
10/23 18:00 9.84 152 13.45
10/23 19:00 9.85 154 13.16
10/23 20:00 9.83 151 12.84
10/23 21:00 9.85 154 12.71
10/23 22:00 9.80 147 12.73
10/23 23:00 9.77 143 12.73
Data processed at Tue 24Oct2023 04:55 GMT

Parsing this webpage?

Checkout our new Data API! CWMSDataAPI (CDA)

All information presented herein is the property of the government of the United States of America and may be revised or deleted at any time without prior notice. Dissemination of this information without the expressed written consent of the Public Affairs Office, Tulsa District U.S. Army Corps of Engineers is strictly prohibited. These data are gathered electronically and, as presented, have NOT undergone any form of quality control. These data are NOT guaranteed to be valid or correct.